sensor_id;sensor_type;location;lat;lon;timestamp;P1;durP1;ratioP1;P2;durP2;ratioP2
17596;SDS011;8917;50.942;6.946;2024-03-08T00:02:07;17.27;;;13.23;;
17596;SDS011;8917;50.942;6.946;2024-03-08T00:04:34;16.90;;;13.53;;
17596;SDS011;8917;50.942;6.946;2024-03-08T00:07:03;17.70;;;12.97;;
17596;SDS011;8917;50.942;6.946;2024-03-08T00:09:31;16.77;;;13.07;;
17596;SDS011;8917;50.942;6.946;2024-03-08T00:11:58;16.03;;;13.63;;
17596;SDS011;8917;50.942;6.946;2024-03-08T00:14:25;14.67;;;12.53;;
17596;SDS011;8917;50.942;6.946;2024-03-08T00:16:53;16.93;;;12.30;;
17596;SDS011;8917;50.942;6.946;2024-03-08T00:19:20;18.13;;;13.63;;
17596;SDS011;8917;50.942;6.946;2024-03-08T00:21:47;17.47;;;13.73;;
17596;SDS011;8917;50.942;6.946;2024-03-08T00:24:16;15.30;;;13.00;;
17596;SDS011;8917;50.942;6.946;2024-03-08T00:26:43;15.93;;;12.47;;
17596;SDS011;8917;50.942;6.946;2024-03-08T00:29:10;16.07;;;13.17;;
17596;SDS011;8917;50.942;6.946;2024-03-08T00:31:38;14.07;;;12.03;;
17596;SDS011;8917;50.942;6.946;2024-03-08T00:34:05;16.37;;;12.70;;
17596;SDS011;8917;50.942;6.946;2024-03-08T00:36:32;15.93;;;13.87;;
17596;SDS011;8917;50.942;6.946;2024-03-08T00:38:59;14.43;;;12.63;;
17596;SDS011;8917;50.942;6.946;2024-03-08T00:41:28;16.57;;;13.70;;
17596;SDS011;8917;50.942;6.946;2024-03-08T00:43:56;15.87;;;12.80;;
17596;SDS011;8917;50.942;6.946;2024-03-08T00:46:23;14.93;;;12.90;;
17596;SDS011;8917;50.942;6.946;2024-03-08T00:48:50;17.80;;;14.13;;
17596;SDS011;8917;50.942;6.946;2024-03-08T00:51:17;17.33;;;13.80;;
17596;SDS011;8917;50.942;6.946;2024-03-08T00:53:44;19.23;;;14.37;;
17596;SDS011;8917;50.942;6.946;2024-03-08T00:56:11;13.77;;;12.23;;
17596;SDS011;8917;50.942;6.946;2024-03-08T00:58:40;14.80;;;12.90;;
17596;SDS011;8917;50.942;6.946;2024-03-08T01:01:08;16.27;;;12.87;;
17596;SDS011;8917;50.942;6.946;2024-03-08T01:03:35;17.47;;;13.80;;
17596;SDS011;8917;50.942;6.946;2024-03-08T01:06:02;17.97;;;13.43;;
17596;SDS011;8917;50.942;6.946;2024-03-08T01:08:29;15.93;;;13.30;;
17596;SDS011;8917;50.942;6.946;2024-03-08T01:10:57;17.03;;;13.37;;
17596;SDS011;8917;50.942;6.946;2024-03-08T01:13:24;17.67;;;13.37;;
17596;SDS011;8917;50.942;6.946;2024-03-08T01:15:53;15.93;;;13.50;;
17596;SDS011;8917;50.942;6.946;2024-03-08T01:18:20;16.87;;;13.87;;
17596;SDS011;8917;50.942;6.946;2024-03-08T01:20:47;17.10;;;14.30;;
17596;SDS011;8917;50.942;6.946;2024-03-08T01:23:14;16.63;;;13.43;;
17596;SDS011;8917;50.942;6.946;2024-03-08T01:25:42;16.00;;;13.60;;
17596;SDS011;8917;50.942;6.946;2024-03-08T01:28:10;19.67;;;13.60;;
17596;SDS011;8917;50.942;6.946;2024-03-08T01:30:38;14.23;;;12.70;;
17596;SDS011;8917;50.942;6.946;2024-03-08T01:33:06;14.73;;;13.13;;
17596;SDS011;8917;50.942;6.946;2024-03-08T01:35:34;17.97;;;14.20;;
17596;SDS011;8917;50.942;6.946;2024-03-08T01:38:01;18.30;;;13.53;;
17596;SDS011;8917;50.942;6.946;2024-03-08T01:40:30;16.77;;;13.33;;
17596;SDS011;8917;50.942;6.946;2024-03-08T01:42:57;17.80;;;14.03;;
17596;SDS011;8917;50.942;6.946;2024-03-08T01:45:24;16.30;;;13.47;;
17596;SDS011;8917;50.942;6.946;2024-03-08T01:47:51;19.90;;;14.57;;
17596;SDS011;8917;50.942;6.946;2024-03-08T01:50:20;18.40;;;13.63;;
17596;SDS011;8917;50.942;6.946;2024-03-08T01:52:47;16.47;;;13.90;;
17596;SDS011;8917;50.942;6.946;2024-03-08T01:55:15;16.47;;;13.83;;
17596;SDS011;8917;50.942;6.946;2024-03-08T01:57:43;18.97;;;14.67;;
17596;SDS011;8917;50.942;6.946;2024-03-08T02:00:10;18.93;;;14.43;;
17596;SDS011;8917;50.942;6.946;2024-03-08T02:02:38;17.03;;;13.60;;
17596;SDS011;8917;50.942;6.946;2024-03-08T02:05:09;18.67;;;14.00;;
17596;SDS011;8917;50.942;6.946;2024-03-08T02:07:38;17.10;;;14.23;;
17596;SDS011;8917;50.942;6.946;2024-03-08T02:10:09;17.93;;;14.47;;
17596;SDS011;8917;50.942;6.946;2024-03-08T02:12:37;17.77;;;14.20;;
17596;SDS011;8917;50.942;6.946;2024-03-08T02:15:05;19.37;;;14.87;;
17596;SDS011;8917;50.942;6.946;2024-03-08T02:17:32;17.87;;;13.93;;
17596;SDS011;8917;50.942;6.946;2024-03-08T02:20:00;17.77;;;14.07;;
17596;SDS011;8917;50.942;6.946;2024-03-08T02:22:30;18.67;;;14.57;;
17596;SDS011;8917;50.942;6.946;2024-03-08T02:24:58;17.53;;;13.90;;
17596;SDS011;8917;50.942;6.946;2024-03-08T02:27:26;15.53;;;13.20;;
17596;SDS011;8917;50.942;6.946;2024-03-08T02:29:55;16.20;;;13.40;;
17596;SDS011;8917;50.942;6.946;2024-03-08T02:32:22;16.37;;;14.43;;
17596;SDS011;8917;50.942;6.946;2024-03-08T02:34:50;16.07;;;13.20;;
17596;SDS011;8917;50.942;6.946;2024-03-08T02:37:17;17.07;;;13.53;;
17596;SDS011;8917;50.942;6.946;2024-03-08T02:39:46;17.50;;;14.50;;
17596;SDS011;8917;50.942;6.946;2024-03-08T02:42:13;17.97;;;15.47;;
17596;SDS011;8917;50.942;6.946;2024-03-08T02:44:42;17.13;;;14.30;;
17596;SDS011;8917;50.942;6.946;2024-03-08T02:47:10;17.50;;;14.17;;
17596;SDS011;8917;50.942;6.946;2024-03-08T02:49:37;15.37;;;13.70;;
17596;SDS011;8917;50.942;6.946;2024-03-08T02:52:04;17.43;;;14.03;;
17596;SDS011;8917;50.942;6.946;2024-03-08T02:54:32;16.63;;;14.60;;
17596;SDS011;8917;50.942;6.946;2024-03-08T02:57:01;17.77;;;14.13;;
17596;SDS011;8917;50.942;6.946;2024-03-08T02:59:29;16.67;;;14.30;;
17596;SDS011;8917;50.942;6.946;2024-03-08T03:01:56;19.23;;;14.53;;
17596;SDS011;8917;50.942;6.946;2024-03-08T03:04:23;18.90;;;14.70;;
17596;SDS011;8917;50.942;6.946;2024-03-08T03:06:50;19.23;;;13.97;;
17596;SDS011;8917;50.942;6.946;2024-03-08T03:09:17;17.23;;;14.27;;
17596;SDS011;8917;50.942;6.946;2024-03-08T03:11:48;15.33;;;13.53;;
17596;SDS011;8917;50.942;6.946;2024-03-08T03:14:17;17.53;;;14.83;;
17596;SDS011;8917;50.942;6.946;2024-03-08T03:16:44;20.03;;;14.40;;
17596;SDS011;8917;50.942;6.946;2024-03-08T03:19:11;17.63;;;15.00;;
17596;SDS011;8917;50.942;6.946;2024-03-08T03:21:40;17.93;;;14.50;;
17596;SDS011;8917;50.942;6.946;2024-03-08T03:24:08;17.40;;;14.23;;
17596;SDS011;8917;50.942;6.946;2024-03-08T03:26:35;17.43;;;13.67;;
17596;SDS011;8917;50.942;6.946;2024-03-08T03:29:04;18.87;;;15.27;;
17596;SDS011;8917;50.942;6.946;2024-03-08T03:31:35;16.07;;;13.67;;
17596;SDS011;8917;50.942;6.946;2024-03-08T03:34:02;17.00;;;14.20;;
17596;SDS011;8917;50.942;6.946;2024-03-08T03:36:29;18.23;;;14.63;;
17596;SDS011;8917;50.942;6.946;2024-03-08T03:38:57;15.23;;;13.20;;
17596;SDS011;8917;50.942;6.946;2024-03-08T03:41:35;17.33;;;14.13;;
17596;SDS011;8917;50.942;6.946;2024-03-08T03:44:03;20.87;;;15.40;;
17596;SDS011;8917;50.942;6.946;2024-03-08T03:46:31;16.43;;;14.03;;
17596;SDS011;8917;50.942;6.946;2024-03-08T03:49:02;18.70;;;14.50;;
17596;SDS011;8917;50.942;6.946;2024-03-08T03:51:30;19.20;;;15.23;;
17596;SDS011;8917;50.942;6.946;2024-03-08T03:53:57;17.03;;;14.80;;
17596;SDS011;8917;50.942;6.946;2024-03-08T03:56:27;18.63;;;14.73;;
17596;SDS011;8917;50.942;6.946;2024-03-08T03:58:55;18.83;;;14.87;;
17596;SDS011;8917;50.942;6.946;2024-03-08T04:01:22;18.17;;;14.70;;
17596;SDS011;8917;50.942;6.946;2024-03-08T04:03:49;18.63;;;14.87;;
17596;SDS011;8917;50.942;6.946;2024-03-08T04:06:18;16.97;;;14.07;;
17596;SDS011;8917;50.942;6.946;2024-03-08T04:08:45;20.93;;;14.77;;
17596;SDS011;8917;50.942;6.946;2024-03-08T04:11:12;17.33;;;14.37;;
17596;SDS011;8917;50.942;6.946;2024-03-08T04:13:41;17.87;;;14.37;;
17596;SDS011;8917;50.942;6.946;2024-03-08T04:16:08;20.37;;;15.43;;
17596;SDS011;8917;50.942;6.946;2024-03-08T04:18:36;17.17;;;14.40;;
17596;SDS011;8917;50.942;6.946;2024-03-08T04:21:04;16.87;;;14.77;;
17596;SDS011;8917;50.942;6.946;2024-03-08T04:23:34;16.83;;;14.33;;
17596;SDS011;8917;50.942;6.946;2024-03-08T04:26:01;17.83;;;13.63;;
17596;SDS011;8917;50.942;6.946;2024-03-08T04:28:29;17.37;;;14.57;;
17596;SDS011;8917;50.942;6.946;2024-03-08T04:30:57;19.27;;;14.57;;
17596;SDS011;8917;50.942;6.946;2024-03-08T04:33:25;18.60;;;14.73;;
17596;SDS011;8917;50.942;6.946;2024-03-08T04:35:53;18.83;;;15.30;;
17596;SDS011;8917;50.942;6.946;2024-03-08T04:38:20;16.90;;;13.90;;
17596;SDS011;8917;50.942;6.946;2024-03-08T04:40:49;18.30;;;13.97;;
17596;SDS011;8917;50.942;6.946;2024-03-08T04:43:16;16.10;;;13.53;;
17596;SDS011;8917;50.942;6.946;2024-03-08T04:45:45;18.57;;;15.13;;
17596;SDS011;8917;50.942;6.946;2024-03-08T04:48:13;18.70;;;14.50;;
17596;SDS011;8917;50.942;6.946;2024-03-08T04:50:40;16.57;;;14.20;;
17596;SDS011;8917;50.942;6.946;2024-03-08T04:53:09;17.70;;;14.47;;
17596;SDS011;8917;50.942;6.946;2024-03-08T04:55:37;16.27;;;13.57;;
17596;SDS011;8917;50.942;6.946;2024-03-08T04:58:05;17.20;;;15.03;;
17596;SDS011;8917;50.942;6.946;2024-03-08T05:00:32;16.90;;;14.90;;
17596;SDS011;8917;50.942;6.946;2024-03-08T05:03:00;21.60;;;15.27;;
17596;SDS011;8917;50.942;6.946;2024-03-08T05:05:28;18.73;;;14.20;;
17596;SDS011;8917;50.942;6.946;2024-03-08T05:07:56;19.10;;;14.70;;
17596;SDS011;8917;50.942;6.946;2024-03-08T05:10:23;17.83;;;14.40;;
17596;SDS011;8917;50.942;6.946;2024-03-08T05:12:50;18.67;;;15.43;;
17596;SDS011;8917;50.942;6.946;2024-03-08T05:15:18;22.93;;;14.73;;
17596;SDS011;8917;50.942;6.946;2024-03-08T05:17:46;18.57;;;15.40;;
17596;SDS011;8917;50.942;6.946;2024-03-08T05:20:13;18.40;;;14.57;;
17596;SDS011;8917;50.942;6.946;2024-03-08T05:22:42;20.10;;;15.10;;
17596;SDS011;8917;50.942;6.946;2024-03-08T05:25:09;19.87;;;14.90;;
17596;SDS011;8917;50.942;6.946;2024-03-08T05:27:37;22.03;;;15.93;;
17596;SDS011;8917;50.942;6.946;2024-03-08T05:30:05;18.27;;;14.83;;
17596;SDS011;8917;50.942;6.946;2024-03-08T05:32:34;20.47;;;15.57;;
17596;SDS011;8917;50.942;6.946;2024-03-08T05:35:02;20.17;;;15.30;;
17596;SDS011;8917;50.942;6.946;2024-03-08T05:37:32;18.50;;;14.87;;
17596;SDS011;8917;50.942;6.946;2024-03-08T05:39:59;21.50;;;15.80;;
17596;SDS011;8917;50.942;6.946;2024-03-08T05:42:26;21.30;;;14.73;;
17596;SDS011;8917;50.942;6.946;2024-03-08T05:44:54;19.80;;;15.07;;
17596;SDS011;8917;50.942;6.946;2024-03-08T05:47:23;18.47;;;14.67;;
17596;SDS011;8917;50.942;6.946;2024-03-08T05:49:52;17.67;;;14.13;;
17596;SDS011;8917;50.942;6.946;2024-03-08T05:52:19;18.73;;;14.67;;
17596;SDS011;8917;50.942;6.946;2024-03-08T05:54:47;21.23;;;14.77;;
17596;SDS011;8917;50.942;6.946;2024-03-08T05:57:14;19.47;;;15.50;;
17596;SDS011;8917;50.942;6.946;2024-03-08T05:59:42;21.57;;;15.80;;
17596;SDS011;8917;50.942;6.946;2024-03-08T06:02:09;19.50;;;15.10;;
17596;SDS011;8917;50.942;6.946;2024-03-08T06:04:36;22.07;;;15.80;;
17596;SDS011;8917;50.942;6.946;2024-03-08T06:07:07;19.10;;;15.47;;
17596;SDS011;8917;50.942;6.946;2024-03-08T06:09:37;19.83;;;15.47;;
17596;SDS011;8917;50.942;6.946;2024-03-08T06:12:05;21.27;;;15.77;;
17596;SDS011;8917;50.942;6.946;2024-03-08T06:14:34;20.07;;;15.80;;
17596;SDS011;8917;50.942;6.946;2024-03-08T06:17:02;19.57;;;15.03;;
17596;SDS011;8917;50.942;6.946;2024-03-08T06:19:31;19.97;;;16.30;;
17596;SDS011;8917;50.942;6.946;2024-03-08T06:21:58;21.40;;;15.67;;
17596;SDS011;8917;50.942;6.946;2024-03-08T06:24:29;19.60;;;15.47;;
17596;SDS011;8917;50.942;6.946;2024-03-08T06:26:56;21.77;;;15.23;;
17596;SDS011;8917;50.942;6.946;2024-03-08T06:29:23;19.63;;;15.80;;
17596;SDS011;8917;50.942;6.946;2024-03-08T06:31:51;19.60;;;15.73;;
17596;SDS011;8917;50.942;6.946;2024-03-08T06:34:18;19.47;;;16.20;;
17596;SDS011;8917;50.942;6.946;2024-03-08T06:36:45;20.13;;;15.43;;
17596;SDS011;8917;50.942;6.946;2024-03-08T06:39:13;18.77;;;15.27;;
17596;SDS011;8917;50.942;6.946;2024-03-08T06:41:41;20.30;;;16.10;;
17596;SDS011;8917;50.942;6.946;2024-03-08T06:44:09;21.50;;;15.90;;
17596;SDS011;8917;50.942;6.946;2024-03-08T06:46:36;23.40;;;16.70;;
17596;SDS011;8917;50.942;6.946;2024-03-08T06:49:04;21.20;;;16.47;;
17596;SDS011;8917;50.942;6.946;2024-03-08T06:51:32;19.80;;;15.37;;
17596;SDS011;8917;50.942;6.946;2024-03-08T06:53:59;21.20;;;15.77;;
17596;SDS011;8917;50.942;6.946;2024-03-08T06:56:26;23.70;;;16.60;;
17596;SDS011;8917;50.942;6.946;2024-03-08T06:58:56;19.67;;;15.53;;
17596;SDS011;8917;50.942;6.946;2024-03-08T07:01:23;21.70;;;15.97;;
17596;SDS011;8917;50.942;6.946;2024-03-08T07:03:50;20.97;;;15.93;;
17596;SDS011;8917;50.942;6.946;2024-03-08T07:06:17;23.53;;;16.63;;
17596;SDS011;8917;50.942;6.946;2024-03-08T07:08:45;20.93;;;16.57;;
17596;SDS011;8917;50.942;6.946;2024-03-08T07:11:13;22.20;;;16.23;;
17596;SDS011;8917;50.942;6.946;2024-03-08T07:13:43;20.83;;;16.00;;
17596;SDS011;8917;50.942;6.946;2024-03-08T07:16:12;21.93;;;15.93;;
17596;SDS011;8917;50.942;6.946;2024-03-08T07:18:39;20.03;;;15.97;;
17596;SDS011;8917;50.942;6.946;2024-03-08T07:21:08;22.93;;;16.40;;
17596;SDS011;8917;50.942;6.946;2024-03-08T07:23:36;20.60;;;15.97;;
17596;SDS011;8917;50.942;6.946;2024-03-08T07:26:19;20.43;;;15.23;;
17596;SDS011;8917;50.942;6.946;2024-03-08T07:28:47;21.67;;;17.17;;
17596;SDS011;8917;50.942;6.946;2024-03-08T07:31:15;23.83;;;18.27;;
17596;SDS011;8917;50.942;6.946;2024-03-08T07:33:56;24.20;;;17.03;;
17596;SDS011;8917;50.942;6.946;2024-03-08T07:36:23;22.07;;;16.30;;
17596;SDS011;8917;50.942;6.946;2024-03-08T07:38:51;23.53;;;17.37;;
17596;SDS011;8917;50.942;6.946;2024-03-08T07:41:18;21.03;;;16.60;;
17596;SDS011;8917;50.942;6.946;2024-03-08T07:43:47;24.67;;;17.23;;
17596;SDS011;8917;50.942;6.946;2024-03-08T07:46:16;20.73;;;15.70;;
17596;SDS011;8917;50.942;6.946;2024-03-08T07:48:43;25.33;;;17.40;;
17596;SDS011;8917;50.942;6.946;2024-03-08T07:51:11;20.27;;;16.43;;
17596;SDS011;8917;50.942;6.946;2024-03-08T07:53:38;23.30;;;17.47;;
17596;SDS011;8917;50.942;6.946;2024-03-08T07:56:06;22.20;;;17.30;;
17596;SDS011;8917;50.942;6.946;2024-03-08T07:58:36;23.70;;;16.33;;
17596;SDS011;8917;50.942;6.946;2024-03-08T08:01:05;24.37;;;18.17;;
17596;SDS011;8917;50.942;6.946;2024-03-08T08:03:33;18.13;;;15.23;;
17596;SDS011;8917;50.942;6.946;2024-03-08T08:06:00;20.43;;;15.57;;
17596;SDS011;8917;50.942;6.946;2024-03-08T08:08:28;25.47;;;17.50;;
17596;SDS011;8917;50.942;6.946;2024-03-08T08:10:57;20.07;;;16.87;;
17596;SDS011;8917;50.942;6.946;2024-03-08T08:13:26;19.83;;;14.90;;
17596;SDS011;8917;50.942;6.946;2024-03-08T08:15:57;19.90;;;14.83;;
17596;SDS011;8917;50.942;6.946;2024-03-08T08:18:25;22.07;;;14.97;;
17596;SDS011;8917;50.942;6.946;2024-03-08T08:20:53;19.90;;;15.90;;
17596;SDS011;8917;50.942;6.946;2024-03-08T08:23:20;19.20;;;15.70;;
17596;SDS011;8917;50.942;6.946;2024-03-08T08:25:47;21.67;;;15.73;;
17596;SDS011;8917;50.942;6.946;2024-03-08T08:28:15;19.53;;;15.30;;
17596;SDS011;8917;50.942;6.946;2024-03-08T08:30:51;21.50;;;16.40;;
17596;SDS011;8917;50.942;6.946;2024-03-08T08:33:19;22.37;;;16.57;;
17596;SDS011;8917;50.942;6.946;2024-03-08T08:35:46;19.27;;;14.30;;
17596;SDS011;8917;50.942;6.946;2024-03-08T08:38:18;22.60;;;14.90;;
17596;SDS011;8917;50.942;6.946;2024-03-08T08:40:46;20.83;;;16.17;;
17596;SDS011;8917;50.942;6.946;2024-03-08T08:43:13;17.53;;;13.57;;
17596;SDS011;8917;50.942;6.946;2024-03-08T08:45:40;23.67;;;16.33;;
17596;SDS011;8917;50.942;6.946;2024-03-08T08:48:07;21.00;;;15.57;;
17596;SDS011;8917;50.942;6.946;2024-03-08T08:50:35;20.57;;;15.27;;
17596;SDS011;8917;50.942;6.946;2024-03-08T08:53:03;17.23;;;13.87;;
17596;SDS011;8917;50.942;6.946;2024-03-08T08:55:33;19.20;;;14.80;;
17596;SDS011;8917;50.942;6.946;2024-03-08T08:58:01;19.33;;;14.77;;
17596;SDS011;8917;50.942;6.946;2024-03-08T09:00:28;18.90;;;14.47;;
17596;SDS011;8917;50.942;6.946;2024-03-08T09:02:56;17.77;;;14.27;;
17596;SDS011;8917;50.942;6.946;2024-03-08T09:05:24;19.90;;;14.73;;
17596;SDS011;8917;50.942;6.946;2024-03-08T09:07:51;19.23;;;13.43;;
17596;SDS011;8917;50.942;6.946;2024-03-08T09:10:19;18.40;;;13.93;;
17596;SDS011;8917;50.942;6.946;2024-03-08T09:12:47;18.27;;;14.37;;
17596;SDS011;8917;50.942;6.946;2024-03-08T09:15:15;20.90;;;14.70;;
17596;SDS011;8917;50.942;6.946;2024-03-08T09:17:42;18.20;;;14.27;;
17596;SDS011;8917;50.942;6.946;2024-03-08T09:20:10;18.03;;;13.50;;
17596;SDS011;8917;50.942;6.946;2024-03-08T09:22:40;19.23;;;14.00;;
17596;SDS011;8917;50.942;6.946;2024-03-08T09:25:08;18.40;;;14.00;;
17596;SDS011;8917;50.942;6.946;2024-03-08T09:27:35;18.83;;;13.83;;
17596;SDS011;8917;50.942;6.946;2024-03-08T09:30:04;18.70;;;14.63;;
17596;SDS011;8917;50.942;6.946;2024-03-08T09:32:32;18.97;;;13.63;;
17596;SDS011;8917;50.942;6.946;2024-03-08T09:34:59;17.30;;;13.23;;
17596;SDS011;8917;50.942;6.946;2024-03-08T09:37:27;18.63;;;13.60;;
17596;SDS011;8917;50.942;6.946;2024-03-08T09:39:54;16.83;;;12.73;;
17596;SDS011;8917;50.942;6.946;2024-03-08T09:42:22;18.27;;;13.70;;
17596;SDS011;8917;50.942;6.946;2024-03-08T09:44:49;14.43;;;12.37;;
17596;SDS011;8917;50.942;6.946;2024-03-08T09:47:19;16.40;;;13.40;;
17596;SDS011;8917;50.942;6.946;2024-03-08T09:49:49;15.00;;;12.87;;
17596;SDS011;8917;50.942;6.946;2024-03-08T09:52:16;17.03;;;12.67;;
17596;SDS011;8917;50.942;6.946;2024-03-08T09:54:43;15.10;;;12.20;;
17596;SDS011;8917;50.942;6.946;2024-03-08T09:57:11;17.13;;;13.03;;
17596;SDS011;8917;50.942;6.946;2024-03-08T09:59:39;16.20;;;12.43;;
17596;SDS011;8917;50.942;6.946;2024-03-08T10:02:14;16.13;;;12.97;;
17596;SDS011;8917;50.942;6.946;2024-03-08T10:04:43;14.97;;;12.10;;
17596;SDS011;8917;50.942;6.946;2024-03-08T10:07:12;13.67;;;11.00;;
17596;SDS011;8917;50.942;6.946;2024-03-08T10:09:39;13.83;;;10.93;;
17596;SDS011;8917;50.942;6.946;2024-03-08T10:12:14;15.47;;;11.37;;
17596;SDS011;8917;50.942;6.946;2024-03-08T10:14:45;13.10;;;10.43;;
17596;SDS011;8917;50.942;6.946;2024-03-08T10:17:12;18.17;;;11.90;;
17596;SDS011;8917;50.942;6.946;2024-03-08T10:19:43;13.13;;;10.40;;
17596;SDS011;8917;50.942;6.946;2024-03-08T10:22:16;12.17;;;9.93;;
17596;SDS011;8917;50.942;6.946;2024-03-08T10:24:44;12.43;;;10.27;;
17596;SDS011;8917;50.942;6.946;2024-03-08T10:27:12;10.10;;;8.73;;
17596;SDS011;8917;50.942;6.946;2024-03-08T10:29:41;12.43;;;9.30;;
17596;SDS011;8917;50.942;6.946;2024-03-08T10:32:10;12.23;;;8.90;;
17596;SDS011;8917;50.942;6.946;2024-03-08T10:34:39;11.33;;;8.23;;
17596;SDS011;8917;50.942;6.946;2024-03-08T10:37:08;12.50;;;9.10;;
17596;SDS011;8917;50.942;6.946;2024-03-08T10:39:42;12.43;;;9.87;;
17596;SDS011;8917;50.942;6.946;2024-03-08T10:42:14;12.27;;;9.70;;
17596;SDS011;8917;50.942;6.946;2024-03-08T10:44:48;11.40;;;9.00;;
17596;SDS011;8917;50.942;6.946;2024-03-08T10:47:21;17.37;;;9.27;;
17596;SDS011;8917;50.942;6.946;2024-03-08T10:49:54;10.73;;;9.20;;
17596;SDS011;8917;50.942;6.946;2024-03-08T10:52:22;12.67;;;9.03;;
17596;SDS011;8917;50.942;6.946;2024-03-08T10:54:50;11.60;;;9.10;;
17596;SDS011;8917;50.942;6.946;2024-03-08T10:57:19;11.80;;;9.30;;
17596;SDS011;8917;50.942;6.946;2024-03-08T10:59:49;9.00;;;7.73;;
17596;SDS011;8917;50.942;6.946;2024-03-08T11:02:17;10.67;;;8.40;;
17596;SDS011;8917;50.942;6.946;2024-03-08T11:04:48;11.23;;;8.47;;
17596;SDS011;8917;50.942;6.946;2024-03-08T11:07:15;11.50;;;8.03;;
17596;SDS011;8917;50.942;6.946;2024-03-08T11:09:48;11.80;;;8.37;;
17596;SDS011;8917;50.942;6.946;2024-03-08T11:12:19;11.47;;;9.17;;
17596;SDS011;8917;50.942;6.946;2024-03-08T11:14:46;12.83;;;8.47;;
17596;SDS011;8917;50.942;6.946;2024-03-08T11:17:15;14.20;;;9.30;;
17596;SDS011;8917;50.942;6.946;2024-03-08T11:19:47;11.20;;;8.60;;
17596;SDS011;8917;50.942;6.946;2024-03-08T11:22:20;11.20;;;8.07;;
17596;SDS011;8917;50.942;6.946;2024-03-08T11:24:53;9.47;;;8.27;;
17596;SDS011;8917;50.942;6.946;2024-03-08T11:27:20;10.77;;;8.33;;
17596;SDS011;8917;50.942;6.946;2024-03-08T11:30:01;10.07;;;7.60;;
17596;SDS011;8917;50.942;6.946;2024-03-08T11:32:35;10.43;;;8.10;;
17596;SDS011;8917;50.942;6.946;2024-03-08T11:35:05;11.87;;;8.97;;
17596;SDS011;8917;50.942;6.946;2024-03-08T11:37:33;10.97;;;8.20;;
17596;SDS011;8917;50.942;6.946;2024-03-08T11:40:06;13.67;;;10.77;;
17596;SDS011;8917;50.942;6.946;2024-03-08T11:42:39;11.30;;;8.83;;
17596;SDS011;8917;50.942;6.946;2024-03-08T11:45:08;10.03;;;8.43;;
17596;SDS011;8917;50.942;6.946;2024-03-08T11:47:36;12.63;;;9.30;;
17596;SDS011;8917;50.942;6.946;2024-03-08T11:50:05;12.07;;;9.47;;
17596;SDS011;8917;50.942;6.946;2024-03-08T11:52:35;11.47;;;8.13;;
17596;SDS011;8917;50.942;6.946;2024-03-08T11:55:05;11.80;;;9.17;;
17596;SDS011;8917;50.942;6.946;2024-03-08T11:57:32;11.97;;;9.23;;
17596;SDS011;8917;50.942;6.946;2024-03-08T12:00:00;10.20;;;8.13;;
17596;SDS011;8917;50.942;6.946;2024-03-08T12:02:31;10.87;;;8.33;;
17596;SDS011;8917;50.942;6.946;2024-03-08T12:05:00;10.80;;;9.27;;
17596;SDS011;8917;50.942;6.946;2024-03-08T12:07:28;9.50;;;8.03;;
17596;SDS011;8917;50.942;6.946;2024-03-08T12:10:17;8.63;;;7.57;;
17596;SDS011;8917;50.942;6.946;2024-03-08T12:12:46;12.90;;;9.20;;
17596;SDS011;8917;50.942;6.946;2024-03-08T12:15:15;10.73;;;8.67;;
17596;SDS011;8917;50.942;6.946;2024-03-08T12:17:43;11.80;;;9.07;;
17596;SDS011;8917;50.942;6.946;2024-03-08T12:20:14;11.13;;;8.67;;
17596;SDS011;8917;50.942;6.946;2024-03-08T12:22:42;14.47;;;8.63;;
17596;SDS011;8917;50.942;6.946;2024-03-08T12:25:10;10.93;;;9.00;;
17596;SDS011;8917;50.942;6.946;2024-03-08T12:27:39;10.17;;;8.43;;
17596;SDS011;8917;50.942;6.946;2024-03-08T12:30:17;12.60;;;8.47;;
17596;SDS011;8917;50.942;6.946;2024-03-08T12:32:46;14.60;;;8.57;;
17596;SDS011;8917;50.942;6.946;2024-03-08T12:35:14;11.80;;;8.50;;
17596;SDS011;8917;50.942;6.946;2024-03-08T12:37:41;11.37;;;9.13;;
17596;SDS011;8917;50.942;6.946;2024-03-08T12:40:09;12.30;;;8.70;;
17596;SDS011;8917;50.942;6.946;2024-03-08T12:42:40;10.97;;;9.17;;
17596;SDS011;8917;50.942;6.946;2024-03-08T12:45:07;12.20;;;8.73;;
17596;SDS011;8917;50.942;6.946;2024-03-08T12:47:35;11.73;;;9.10;;
17596;SDS011;8917;50.942;6.946;2024-03-08T12:50:02;9.07;;;7.70;;
17596;SDS011;8917;50.942;6.946;2024-03-08T12:52:32;10.77;;;8.33;;
17596;SDS011;8917;50.942;6.946;2024-03-08T12:54:59;11.20;;;8.00;;
17596;SDS011;8917;50.942;6.946;2024-03-08T12:57:31;9.03;;;7.20;;
17596;SDS011;8917;50.942;6.946;2024-03-08T13:00:00;10.73;;;8.53;;
17596;SDS011;8917;50.942;6.946;2024-03-08T13:02:28;11.03;;;8.83;;
17596;SDS011;8917;50.942;6.946;2024-03-08T13:04:57;10.00;;;7.77;;
17596;SDS011;8917;50.942;6.946;2024-03-08T13:07:24;12.00;;;8.23;;
17596;SDS011;8917;50.942;6.946;2024-03-08T13:09:52;12.83;;;8.93;;
17596;SDS011;8917;50.942;6.946;2024-03-08T13:12:20;12.70;;;9.10;;
17596;SDS011;8917;50.942;6.946;2024-03-08T13:14:48;11.13;;;8.30;;
17596;SDS011;8917;50.942;6.946;2024-03-08T13:17:17;9.47;;;7.77;;
17596;SDS011;8917;50.942;6.946;2024-03-08T13:19:44;15.67;;;9.53;;
17596;SDS011;8917;50.942;6.946;2024-03-08T13:22:11;11.57;;;8.80;;
17596;SDS011;8917;50.942;6.946;2024-03-08T13:24:41;9.67;;;7.80;;
17596;SDS011;8917;50.942;6.946;2024-03-08T13:27:10;10.63;;;8.20;;
17596;SDS011;8917;50.942;6.946;2024-03-08T13:29:45;12.10;;;8.27;;
17596;SDS011;8917;50.942;6.946;2024-03-08T13:32:13;10.30;;;8.23;;
17596;SDS011;8917;50.942;6.946;2024-03-08T13:34:42;11.03;;;7.90;;
17596;SDS011;8917;50.942;6.946;2024-03-08T13:37:13;14.53;;;11.80;;
17596;SDS011;8917;50.942;6.946;2024-03-08T13:39:42;39.27;;;29.60;;
17596;SDS011;8917;50.942;6.946;2024-03-08T13:42:10;12.03;;;8.23;;
17596;SDS011;8917;50.942;6.946;2024-03-08T13:44:43;11.00;;;8.93;;
17596;SDS011;8917;50.942;6.946;2024-03-08T13:47:11;11.70;;;7.50;;
17596;SDS011;8917;50.942;6.946;2024-03-08T13:49:38;11.30;;;7.47;;
17596;SDS011;8917;50.942;6.946;2024-03-08T13:52:07;9.13;;;8.07;;
17596;SDS011;8917;50.942;6.946;2024-03-08T13:54:34;8.73;;;7.40;;
17596;SDS011;8917;50.942;6.946;2024-03-08T13:57:01;9.47;;;8.27;;
17596;SDS011;8917;50.942;6.946;2024-03-08T13:59:29;10.50;;;7.37;;
17596;SDS011;8917;50.942;6.946;2024-03-08T14:01:58;15.00;;;8.07;;
17596;SDS011;8917;50.942;6.946;2024-03-08T14:04:26;93.10;;;15.97;;
17596;SDS011;8917;50.942;6.946;2024-03-08T14:06:54;10.60;;;7.47;;
17596;SDS011;8917;50.942;6.946;2024-03-08T14:09:30;66.33;;;12.37;;
17596;SDS011;8917;50.942;6.946;2024-03-08T14:11:57;21.97;;;8.60;;
17596;SDS011;8917;50.942;6.946;2024-03-08T14:14:24;14.50;;;7.70;;
17596;SDS011;8917;50.942;6.946;2024-03-08T14:16:51;63.60;;;13.23;;
17596;SDS011;8917;50.942;6.946;2024-03-08T14:19:20;66.40;;;12.90;;
17596;SDS011;8917;50.942;6.946;2024-03-08T14:21:47;10.13;;;6.97;;
17596;SDS011;8917;50.942;6.946;2024-03-08T14:24:18;10.00;;;7.70;;
17596;SDS011;8917;50.942;6.946;2024-03-08T14:26:47;10.23;;;8.10;;
17596;SDS011;8917;50.942;6.946;2024-03-08T14:29:15;11.07;;;7.70;;
17596;SDS011;8917;50.942;6.946;2024-03-08T14:31:43;12.10;;;7.60;;
17596;SDS011;8917;50.942;6.946;2024-03-08T14:34:10;8.60;;;7.20;;
17596;SDS011;8917;50.942;6.946;2024-03-08T14:36:39;9.40;;;7.60;;
17596;SDS011;8917;50.942;6.946;2024-03-08T14:39:06;12.13;;;8.60;;
17596;SDS011;8917;50.942;6.946;2024-03-08T14:41:34;10.57;;;8.50;;
17596;SDS011;8917;50.942;6.946;2024-03-08T14:44:02;12.63;;;8.87;;
17596;SDS011;8917;50.942;6.946;2024-03-08T14:46:29;9.87;;;8.00;;